sensor_id;sensor_type;location;lat;lon;timestamp;temperature;humidity
74101;DHT22;62462;52.530;21.682;2023-03-17T00:01:40;2.00;64.50
74101;DHT22;62462;52.530;21.682;2023-03-17T00:04:10;2.00;63.80
74101;DHT22;62462;52.530;21.682;2023-03-17T00:06:36;2.10;63.60
74101;DHT22;62462;52.530;21.682;2023-03-17T00:09:05;2.10;63.60
74101;DHT22;62462;52.530;21.682;2023-03-17T00:11:31;2.10;63.20
74101;DHT22;62462;52.530;21.682;2023-03-17T00:13:57;2.10;63.10
74101;DHT22;62462;52.530;21.682;2023-03-17T00:16:35;2.00;63.60
74101;DHT22;62462;52.530;21.682;2023-03-17T00:19:01;1.80;65.20
74101;DHT22;62462;52.530;21.682;2023-03-17T00:21:32;1.70;64.80
74101;DHT22;62462;52.530;21.682;2023-03-17T00:23:59;1.70;64.90
74101;DHT22;62462;52.530;21.682;2023-03-17T00:26:26;1.80;64.40
74101;DHT22;62462;52.530;21.682;2023-03-17T00:28:53;1.90;63.80
74101;DHT22;62462;52.530;21.682;2023-03-17T00:31:26;1.90;63.00
74101;DHT22;62462;52.530;21.682;2023-03-17T00:33:54;1.90;62.50
74101;DHT22;62462;52.530;21.682;2023-03-17T00:36:30;1.90;62.40
74101;DHT22;62462;52.530;21.682;2023-03-17T00:38:57;1.80;62.60
74101;DHT22;62462;52.530;21.682;2023-03-17T00:41:23;1.80;62.80
74101;DHT22;62462;52.530;21.682;2023-03-17T00:43:50;1.80;63.40
74101;DHT22;62462;52.530;21.682;2023-03-17T00:46:25;1.80;63.30
74101;DHT22;62462;52.530;21.682;2023-03-17T00:49:14;1.80;63.10
74101;DHT22;62462;52.530;21.682;2023-03-17T00:51:42;1.80;62.90
74101;DHT22;62462;52.530;21.682;2023-03-17T00:54:09;1.80;63.00
74101;DHT22;62462;52.530;21.682;2023-03-17T00:56:36;1.80;62.90
74101;DHT22;62462;52.530;21.682;2023-03-17T00:59:03;1.80;63.30
74101;DHT22;62462;52.530;21.682;2023-03-17T01:01:30;1.80;63.30
74101;DHT22;62462;52.530;21.682;2023-03-17T01:03:56;1.80;63.30
74101;DHT22;62462;52.530;21.682;2023-03-17T01:06:22;1.80;63.60
74101;DHT22;62462;52.530;21.682;2023-03-17T01:08:48;1.60;63.80
74101;DHT22;62462;52.530;21.682;2023-03-17T01:11:17;1.50;64.30
74101;DHT22;62462;52.530;21.682;2023-03-17T01:13:44;1.40;64.70
74101;DHT22;62462;52.530;21.682;2023-03-17T01:16:11;1.50;64.10
74101;DHT22;62462;52.530;21.682;2023-03-17T01:18:37;1.60;63.70
74101;DHT22;62462;52.530;21.682;2023-03-17T01:21:04;1.50;63.60
74101;DHT22;62462;52.530;21.682;2023-03-17T01:23:31;1.40;63.20
74101;DHT22;62462;52.530;21.682;2023-03-17T01:25:57;1.50;62.90
74101;DHT22;62462;52.530;21.682;2023-03-17T01:28:23;1.50;62.60
74101;DHT22;62462;52.530;21.682;2023-03-17T01:30:49;1.50;62.80
74101;DHT22;62462;52.530;21.682;2023-03-17T01:33:15;1.50;62.80
74101;DHT22;62462;52.530;21.682;2023-03-17T01:35:42;1.50;63.00
74101;DHT22;62462;52.530;21.682;2023-03-17T01:38:08;1.50;63.00
74101;DHT22;62462;52.530;21.682;2023-03-17T01:40:37;1.50;63.20
74101;DHT22;62462;52.530;21.682;2023-03-17T01:48:40;1.40;63.00
74101;DHT22;62462;52.530;21.682;2023-03-17T01:51:10;1.40;63.10
74101;DHT22;62462;52.530;21.682;2023-03-17T01:53:37;1.40;63.20
74101;DHT22;62462;52.530;21.682;2023-03-17T01:56:05;1.40;63.30
74101;DHT22;62462;52.530;21.682;2023-03-17T01:58:32;1.40;63.40
74101;DHT22;62462;52.530;21.682;2023-03-17T02:00:59;1.40;63.20
74101;DHT22;62462;52.530;21.682;2023-03-17T02:03:25;1.30;63.10
74101;DHT22;62462;52.530;21.682;2023-03-17T02:05:53;1.30;63.10
74101;DHT22;62462;52.530;21.682;2023-03-17T02:08:19;1.30;63.40
74101;DHT22;62462;52.530;21.682;2023-03-17T02:10:47;1.30;63.50
74101;DHT22;62462;52.530;21.682;2023-03-17T02:13:14;1.30;63.50
74101;DHT22;62462;52.530;21.682;2023-03-17T02:15:45;1.30;63.50
74101;DHT22;62462;52.530;21.682;2023-03-17T02:18:14;1.40;63.50
74101;DHT22;62462;52.530;21.682;2023-03-17T02:23:14;1.10;64.40
74101;DHT22;62462;52.530;21.682;2023-03-17T02:25:44;1.00;64.60
74101;DHT22;62462;52.530;21.682;2023-03-17T02:28:14;1.00;65.10
74101;DHT22;62462;52.530;21.682;2023-03-17T02:30:42;1.00;64.90
74101;DHT22;62462;52.530;21.682;2023-03-17T02:33:09;1.10;64.70
74101;DHT22;62462;52.530;21.682;2023-03-17T02:35:36;1.10;64.40
74101;DHT22;62462;52.530;21.682;2023-03-17T02:38:02;1.20;64.10
74101;DHT22;62462;52.530;21.682;2023-03-17T02:40:28;1.20;64.00
74101;DHT22;62462;52.530;21.682;2023-03-17T02:42:54;1.20;64.10
74101;DHT22;62462;52.530;21.682;2023-03-17T02:45:21;1.10;64.40
74101;DHT22;62462;52.530;21.682;2023-03-17T02:47:49;1.00;64.30
74101;DHT22;62462;52.530;21.682;2023-03-17T02:50:22;1.10;64.10
74101;DHT22;62462;52.530;21.682;2023-03-17T02:52:49;1.10;63.90
74101;DHT22;62462;52.530;21.682;2023-03-17T02:55:16;1.10;64.00
74101;DHT22;62462;52.530;21.682;2023-03-17T02:57:42;1.10;64.10
74101;DHT22;62462;52.530;21.682;2023-03-17T03:00:09;1.00;64.20
74101;DHT22;62462;52.530;21.682;2023-03-17T03:02:39;1.10;64.10
74101;DHT22;62462;52.530;21.682;2023-03-17T03:05:06;1.10;64.00
74101;DHT22;62462;52.530;21.682;2023-03-17T03:07:33;1.10;63.90
74101;DHT22;62462;52.530;21.682;2023-03-17T03:09:59;1.10;63.50
74101;DHT22;62462;52.530;21.682;2023-03-17T03:12:25;1.10;63.60
74101;DHT22;62462;52.530;21.682;2023-03-17T03:14:50;1.00;63.90
74101;DHT22;62462;52.530;21.682;2023-03-17T03:17:17;1.00;63.90
74101;DHT22;62462;52.530;21.682;2023-03-17T03:19:43;1.00;64.00
74101;DHT22;62462;52.530;21.682;2023-03-17T03:22:09;1.00;64.10
74101;DHT22;62462;52.530;21.682;2023-03-17T03:24:36;0.90;64.50
74101;DHT22;62462;52.530;21.682;2023-03-17T03:27:02;0.90;64.60
74101;DHT22;62462;52.530;21.682;2023-03-17T03:29:28;0.90;64.30
74101;DHT22;62462;52.530;21.682;2023-03-17T03:31:53;0.80;64.50
74101;DHT22;62462;52.530;21.682;2023-03-17T03:34:19;0.80;64.70
74101;DHT22;62462;52.530;21.682;2023-03-17T03:36:45;0.90;64.20
74101;DHT22;62462;52.530;21.682;2023-03-17T03:39:11;0.80;64.10
74101;DHT22;62462;52.530;21.682;2023-03-17T03:41:37;0.80;64.10
74101;DHT22;62462;52.530;21.682;2023-03-17T03:44:03;0.90;64.20
74101;DHT22;62462;52.530;21.682;2023-03-17T03:46:29;0.80;64.30
74101;DHT22;62462;52.530;21.682;2023-03-17T03:48:55;0.80;64.20
74101;DHT22;62462;52.530;21.682;2023-03-17T03:51:21;0.80;64.10
74101;DHT22;62462;52.530;21.682;2023-03-17T03:53:46;0.70;64.40
74101;DHT22;62462;52.530;21.682;2023-03-17T03:56:15;0.60;64.90
74101;DHT22;62462;52.530;21.682;2023-03-17T03:58:41;0.60;64.70
74101;DHT22;62462;52.530;21.682;2023-03-17T04:01:08;0.70;64.10
74101;DHT22;62462;52.530;21.682;2023-03-17T04:03:37;0.70;63.80
74101;DHT22;62462;52.530;21.682;2023-03-17T04:06:04;0.70;63.70
74101;DHT22;62462;52.530;21.682;2023-03-17T04:08:30;0.70;63.90
74101;DHT22;62462;52.530;21.682;2023-03-17T04:10:57;0.70;63.60
74101;DHT22;62462;52.530;21.682;2023-03-17T04:13:23;0.70;63.10
74101;DHT22;62462;52.530;21.682;2023-03-17T04:15:49;0.60;62.50
74101;DHT22;62462;52.530;21.682;2023-03-17T04:18:15;0.60;62.60
74101;DHT22;62462;52.530;21.682;2023-03-17T04:20:41;0.60;63.10
74101;DHT22;62462;52.530;21.682;2023-03-17T04:23:07;0.50;63.30
74101;DHT22;62462;52.530;21.682;2023-03-17T04:25:33;0.40;63.70
74101;DHT22;62462;52.530;21.682;2023-03-17T04:27:59;0.30;64.20
74101;DHT22;62462;52.530;21.682;2023-03-17T04:30:25;0.20;64.70
74101;DHT22;62462;52.530;21.682;2023-03-17T04:32:51;0.20;65.10
74101;DHT22;62462;52.530;21.682;2023-03-17T04:35:19;0.30;64.90
74101;DHT22;62462;52.530;21.682;2023-03-17T04:37:47;0.30;64.30
74101;DHT22;62462;52.530;21.682;2023-03-17T04:40:14;0.30;64.10
74101;DHT22;62462;52.530;21.682;2023-03-17T04:42:41;0.30;64.30
74101;DHT22;62462;52.530;21.682;2023-03-17T04:45:09;0.30;64.70
74101;DHT22;62462;52.530;21.682;2023-03-17T04:47:36;0.40;64.60
74101;DHT22;62462;52.530;21.682;2023-03-17T04:50:02;0.50;64.30
74101;DHT22;62462;52.530;21.682;2023-03-17T04:52:28;0.50;64.00
74101;DHT22;62462;52.530;21.682;2023-03-17T04:54:56;0.50;64.00
74101;DHT22;62462;52.530;21.682;2023-03-17T04:57:22;0.60;64.10
74101;DHT22;62462;52.530;21.682;2023-03-17T04:59:49;0.50;64.20
74101;DHT22;62462;52.530;21.682;2023-03-17T05:02:15;0.40;64.60
74101;DHT22;62462;52.530;21.682;2023-03-17T05:04:42;0.50;64.50
74101;DHT22;62462;52.530;21.682;2023-03-17T05:07:10;0.50;64.60
74101;DHT22;62462;52.530;21.682;2023-03-17T05:09:36;0.60;64.60
74101;DHT22;62462;52.530;21.682;2023-03-17T05:12:02;0.60;64.40
74101;DHT22;62462;52.530;21.682;2023-03-17T05:14:29;0.60;64.30
74101;DHT22;62462;52.530;21.682;2023-03-17T05:16:55;0.60;64.10
74101;DHT22;62462;52.530;21.682;2023-03-17T05:19:21;0.70;64.20
74101;DHT22;62462;52.530;21.682;2023-03-17T05:21:47;0.70;64.30
74101;DHT22;62462;52.530;21.682;2023-03-17T05:24:13;0.70;64.30
74101;DHT22;62462;52.530;21.682;2023-03-17T05:26:39;0.60;64.70
74101;DHT22;62462;52.530;21.682;2023-03-17T05:29:05;0.60;65.30
74101;DHT22;62462;52.530;21.682;2023-03-17T05:31:31;0.60;65.50
74101;DHT22;62462;52.530;21.682;2023-03-17T05:33:57;0.80;65.40
74101;DHT22;62462;52.530;21.682;2023-03-17T05:36:23;0.90;65.40
74101;DHT22;62462;52.530;21.682;2023-03-17T05:38:49;1.00;65.40
74101;DHT22;62462;52.530;21.682;2023-03-17T05:41:15;1.10;65.40
74101;DHT22;62462;52.530;21.682;2023-03-17T05:43:42;1.10;65.70
74101;DHT22;62462;52.530;21.682;2023-03-17T05:46:08;1.20;66.10
74101;DHT22;62462;52.530;21.682;2023-03-17T05:48:35;1.30;66.10
74101;DHT22;62462;52.530;21.682;2023-03-17T05:51:01;1.40;66.20
74101;DHT22;62462;52.530;21.682;2023-03-17T05:53:27;1.60;66.50
74101;DHT22;62462;52.530;21.682;2023-03-17T05:55:54;1.80;67.00
74101;DHT22;62462;52.530;21.682;2023-03-17T05:58:20;2.00;67.50
74101;DHT22;62462;52.530;21.682;2023-03-17T06:00:46;2.20;67.60
74101;DHT22;62462;52.530;21.682;2023-03-17T06:03:12;2.40;67.80
74101;DHT22;62462;52.530;21.682;2023-03-17T06:05:38;2.60;67.70
74101;DHT22;62462;52.530;21.682;2023-03-17T06:08:04;2.80;67.90
74101;DHT22;62462;52.530;21.682;2023-03-17T06:10:31;3.00;68.30
74101;DHT22;62462;52.530;21.682;2023-03-17T06:12:57;3.10;68.00
74101;DHT22;62462;52.530;21.682;2023-03-17T06:15:23;3.20;68.60
74101;DHT22;62462;52.530;21.682;2023-03-17T06:17:50;3.30;68.50
74101;DHT22;62462;52.530;21.682;2023-03-17T06:20:17;3.40;68.30
74101;DHT22;62462;52.530;21.682;2023-03-17T06:22:43;3.50;69.10
74101;DHT22;62462;52.530;21.682;2023-03-17T06:25:10;3.70;69.00
74101;DHT22;62462;52.530;21.682;2023-03-17T06:27:36;3.80;68.80
74101;DHT22;62462;52.530;21.682;2023-03-17T06:30:04;4.00;68.50
74101;DHT22;62462;52.530;21.682;2023-03-17T06:32:30;4.00;68.40
74101;DHT22;62462;52.530;21.682;2023-03-17T06:34:56;4.00;68.70
74101;DHT22;62462;52.530;21.682;2023-03-17T06:37:22;3.90;68.30
74101;DHT22;62462;52.530;21.682;2023-03-17T06:39:48;3.90;69.60
74101;DHT22;62462;52.530;21.682;2023-03-17T06:42:14;3.90;68.40
74101;DHT22;62462;52.530;21.682;2023-03-17T06:44:40;4.00;69.00
74101;DHT22;62462;52.530;21.682;2023-03-17T06:47:06;3.90;69.60
74101;DHT22;62462;52.530;21.682;2023-03-17T06:49:32;3.90;69.90
74101;DHT22;62462;52.530;21.682;2023-03-17T06:51:58;3.90;70.50
74101;DHT22;62462;52.530;21.682;2023-03-17T06:54:24;3.90;71.00
74101;DHT22;62462;52.530;21.682;2023-03-17T06:56:51;3.90;70.80
74101;DHT22;62462;52.530;21.682;2023-03-17T06:59:18;3.90;70.90
74101;DHT22;62462;52.530;21.682;2023-03-17T07:01:46;3.90;71.30
74101;DHT22;62462;52.530;21.682;2023-03-17T07:04:14;4.00;70.90
74101;DHT22;62462;52.530;21.682;2023-03-17T07:06:40;4.10;71.20
74101;DHT22;62462;52.530;21.682;2023-03-17T07:09:07;4.30;72.20
74101;DHT22;62462;52.530;21.682;2023-03-17T07:11:34;4.50;72.20
74101;DHT22;62462;52.530;21.682;2023-03-17T07:14:00;4.70;71.40
74101;DHT22;62462;52.530;21.682;2023-03-17T07:16:27;4.80;71.00
74101;DHT22;62462;52.530;21.682;2023-03-17T07:18:53;5.00;70.70
74101;DHT22;62462;52.530;21.682;2023-03-17T07:21:19;5.20;70.50
74101;DHT22;62462;52.530;21.682;2023-03-17T07:23:45;5.40;70.00
74101;DHT22;62462;52.530;21.682;2023-03-17T07:26:12;5.60;70.00
74101;DHT22;62462;52.530;21.682;2023-03-17T07:28:38;5.80;69.40
74101;DHT22;62462;52.530;21.682;2023-03-17T07:31:04;5.90;68.90
74101;DHT22;62462;52.530;21.682;2023-03-17T07:33:34;6.00;69.80
74101;DHT22;62462;52.530;21.682;2023-03-17T07:36:00;6.20;68.70
74101;DHT22;62462;52.530;21.682;2023-03-17T07:38:26;6.40;67.90
74101;DHT22;62462;52.530;21.682;2023-03-17T07:40:52;6.60;67.10
74101;DHT22;62462;52.530;21.682;2023-03-17T07:43:18;6.60;67.50
74101;DHT22;62462;52.530;21.682;2023-03-17T07:45:45;6.70;67.10
74101;DHT22;62462;52.530;21.682;2023-03-17T07:48:11;6.90;66.80
74101;DHT22;62462;52.530;21.682;2023-03-17T07:50:37;7.10;66.20
74101;DHT22;62462;52.530;21.682;2023-03-17T07:53:04;7.20;65.70
74101;DHT22;62462;52.530;21.682;2023-03-17T07:55:31;7.40;64.80
74101;DHT22;62462;52.530;21.682;2023-03-17T07:57:57;7.60;64.00
74101;DHT22;62462;52.530;21.682;2023-03-17T08:00:23;7.70;63.90
74101;DHT22;62462;52.530;21.682;2023-03-17T08:02:50;7.80;63.00
74101;DHT22;62462;52.530;21.682;2023-03-17T08:05:16;7.80;62.50
74101;DHT22;62462;52.530;21.682;2023-03-17T08:07:42;7.80;61.70
74101;DHT22;62462;52.530;21.682;2023-03-17T08:10:09;7.80;61.30
74101;DHT22;62462;52.530;21.682;2023-03-17T08:12:37;7.90;61.30
74101;DHT22;62462;52.530;21.682;2023-03-17T08:15:05;7.90;60.10
74101;DHT22;62462;52.530;21.682;2023-03-17T08:17:33;8.00;59.10
74101;DHT22;62462;52.530;21.682;2023-03-17T08:20:00;8.10;58.50
74101;DHT22;62462;52.530;21.682;2023-03-17T08:22:26;8.20;58.60
74101;DHT22;62462;52.530;21.682;2023-03-17T08:24:52;8.30;56.70
74101;DHT22;62462;52.530;21.682;2023-03-17T08:27:18;8.40;54.90
74101;DHT22;62462;52.530;21.682;2023-03-17T08:29:47;8.30;55.30
74101;DHT22;62462;52.530;21.682;2023-03-17T08:32:15;8.30;55.90
74101;DHT22;62462;52.530;21.682;2023-03-17T08:34:42;8.20;55.60
74101;DHT22;62462;52.530;21.682;2023-03-17T08:37:09;8.30;53.90
74101;DHT22;62462;52.530;21.682;2023-03-17T08:39:35;8.40;54.20
74101;DHT22;62462;52.530;21.682;2023-03-17T08:42:02;8.40;54.00
74101;DHT22;62462;52.530;21.682;2023-03-17T08:44:28;8.50;53.70
74101;DHT22;62462;52.530;21.682;2023-03-17T08:46:55;8.60;53.60
74101;DHT22;62462;52.530;21.682;2023-03-17T08:49:22;8.70;55.00
74101;DHT22;62462;52.530;21.682;2023-03-17T08:51:50;8.80;53.10
74101;DHT22;62462;52.530;21.682;2023-03-17T08:54:16;8.90;53.00
74101;DHT22;62462;52.530;21.682;2023-03-17T08:56:42;9.10;52.90
74101;DHT22;62462;52.530;21.682;2023-03-17T08:59:08;9.30;51.90
74101;DHT22;62462;52.530;21.682;2023-03-17T09:01:35;9.40;51.70
74101;DHT22;62462;52.530;21.682;2023-03-17T09:04:02;9.50;50.60
74101;DHT22;62462;52.530;21.682;2023-03-17T09:06:28;9.50;50.60
74101;DHT22;62462;52.530;21.682;2023-03-17T09:08:54;9.60;50.50
74101;DHT22;62462;52.530;21.682;2023-03-17T09:11:23;9.70;50.00
74101;DHT22;62462;52.530;21.682;2023-03-17T09:13:50;9.80;50.20
74101;DHT22;62462;52.530;21.682;2023-03-17T09:16:16;9.90;48.50
74101;DHT22;62462;52.530;21.682;2023-03-17T09:18:43;10.00;49.20
74101;DHT22;62462;52.530;21.682;2023-03-17T09:21:11;10.10;49.50
74101;DHT22;62462;52.530;21.682;2023-03-17T09:23:37;10.30;48.90
74101;DHT22;62462;52.530;21.682;2023-03-17T09:26:03;10.50;47.10
74101;DHT22;62462;52.530;21.682;2023-03-17T09:28:29;10.40;47.90
74101;DHT22;62462;52.530;21.682;2023-03-17T09:30:59;10.50;49.00
74101;DHT22;62462;52.530;21.682;2023-03-17T09:33:25;10.60;47.00
74101;DHT22;62462;52.530;21.682;2023-03-17T09:35:52;10.60;46.30
74101;DHT22;62462;52.530;21.682;2023-03-17T09:38:18;10.50;47.20
74101;DHT22;62462;52.530;21.682;2023-03-17T09:46:09;10.90;45.70
74101;DHT22;62462;52.530;21.682;2023-03-17T09:49:10;10.80;43.80
74101;DHT22;62462;52.530;21.682;2023-03-17T09:51:38;10.90;45.50
74101;DHT22;62462;52.530;21.682;2023-03-17T09:54:34;11.10;44.10
74101;DHT22;62462;52.530;21.682;2023-03-17T09:59:59;11.20;42.30
74101;DHT22;62462;52.530;21.682;2023-03-17T10:02:30;11.30;42.20
74101;DHT22;62462;52.530;21.682;2023-03-17T10:04:57;11.40;41.40
74101;DHT22;62462;52.530;21.682;2023-03-17T10:10:33;11.20;38.80
74101;DHT22;62462;52.530;21.682;2023-03-17T10:16:19;11.10;40.90
74101;DHT22;62462;52.530;21.682;2023-03-17T10:18:56;11.20;41.10
74101;DHT22;62462;52.530;21.682;2023-03-17T10:21:28;11.40;41.90
74101;DHT22;62462;52.530;21.682;2023-03-17T10:23:56;11.60;39.30
74101;DHT22;62462;52.530;21.682;2023-03-17T10:26:32;11.70;38.10
74101;DHT22;62462;52.530;21.682;2023-03-17T10:29:01;11.70;38.40
74101;DHT22;62462;52.530;21.682;2023-03-17T10:31:31;11.70;39.30
74101;DHT22;62462;52.530;21.682;2023-03-17T10:34:27;11.70;37.70
74101;DHT22;62462;52.530;21.682;2023-03-17T10:39:30;11.70;38.40
74101;DHT22;62462;52.530;21.682;2023-03-17T10:41:59;11.80;37.90
74101;DHT22;62462;52.530;21.682;2023-03-17T10:47:04;11.70;39.00
74101;DHT22;62462;52.530;21.682;2023-03-17T10:49:38;11.70;39.00
74101;DHT22;62462;52.530;21.682;2023-03-17T10:52:07;11.70;39.40
74101;DHT22;62462;52.530;21.682;2023-03-17T10:54:46;11.90;40.20
74101;DHT22;62462;52.530;21.682;2023-03-17T10:57:13;12.00;40.20
74101;DHT22;62462;52.530;21.682;2023-03-17T10:59:48;12.00;40.00
74101;DHT22;62462;52.530;21.682;2023-03-17T11:02:28;12.10;39.60
74101;DHT22;62462;52.530;21.682;2023-03-17T11:04:59;12.20;39.40
74101;DHT22;62462;52.530;21.682;2023-03-17T11:07:37;12.20;39.10
74101;DHT22;62462;52.530;21.682;2023-03-17T11:10:19;12.20;38.70
74101;DHT22;62462;52.530;21.682;2023-03-17T11:12:48;12.20;39.30
74101;DHT22;62462;52.530;21.682;2023-03-17T11:15:17;12.20;38.00
74101;DHT22;62462;52.530;21.682;2023-03-17T11:17:47;12.30;38.30
74101;DHT22;62462;52.530;21.682;2023-03-17T11:26:30;12.40;38.90
74101;DHT22;62462;52.530;21.682;2023-03-17T11:45:44;12.70;36.50
74101;DHT22;62462;52.530;21.682;2023-03-17T11:59:52;12.90;35.80
74101;DHT22;62462;52.530;21.682;2023-03-17T12:02:27;12.80;36.70
74101;DHT22;62462;52.530;21.682;2023-03-17T12:05:09;12.90;36.20
74101;DHT22;62462;52.530;21.682;2023-03-17T12:07:47;13.00;37.30
74101;DHT22;62462;52.530;21.682;2023-03-17T12:10:23;13.20;37.10
74101;DHT22;62462;52.530;21.682;2023-03-17T12:13:19;13.20;35.20
74101;DHT22;62462;52.530;21.682;2023-03-17T12:21:20;13.00;36.40
74101;DHT22;62462;52.530;21.682;2023-03-17T12:23:51;12.90;36.20
74101;DHT22;62462;52.530;21.682;2023-03-17T12:26:27;12.90;37.30
74101;DHT22;62462;52.530;21.682;2023-03-17T12:29:01;13.00;37.50
74101;DHT22;62462;52.530;21.682;2023-03-17T12:31:36;13.00;37.20
74101;DHT22;62462;52.530;21.682;2023-03-17T12:36:35;13.30;37.70
74101;DHT22;62462;52.530;21.682;2023-03-17T12:39:18;13.40;36.50
74101;DHT22;62462;52.530;21.682;2023-03-17T12:55:56;13.00;37.90
74101;DHT22;62462;52.530;21.682;2023-03-17T12:58:41;13.20;37.20
74101;DHT22;62462;52.530;21.682;2023-03-17T13:01:31;13.40;36.00
74101;DHT22;62462;52.530;21.682;2023-03-17T13:10:10;13.40;34.80
74101;DHT22;62462;52.530;21.682;2023-03-17T13:23:44;12.90;35.20
74101;DHT22;62462;52.530;21.682;2023-03-17T13:26:12;13.00;35.40
74101;DHT22;62462;52.530;21.682;2023-03-17T13:28:41;13.00;35.70
74101;DHT22;62462;52.530;21.682;2023-03-17T13:33:52;13.00;35.30
74101;DHT22;62462;52.530;21.682;2023-03-17T13:36:24;13.10;35.60
74101;DHT22;62462;52.530;21.682;2023-03-17T13:39:11;13.30;35.70
74101;DHT22;62462;52.530;21.682;2023-03-17T13:49:48;13.50;35.50
74101;DHT22;62462;52.530;21.682;2023-03-17T13:52:31;13.60;34.10
74101;DHT22;62462;52.530;21.682;2023-03-17T14:00:33;13.20;34.50
74101;DHT22;62462;52.530;21.682;2023-03-17T14:05:35;12.80;35.10
74101;DHT22;62462;52.530;21.682;2023-03-17T14:08:26;12.70;35.30
74101;DHT22;62462;52.530;21.682;2023-03-17T14:10:57;12.70;35.60
74101;DHT22;62462;52.530;21.682;2023-03-17T14:13:31;12.70;35.40
74101;DHT22;62462;52.530;21.682;2023-03-17T14:16:27;12.50;35.60
74101;DHT22;62462;52.530;21.682;2023-03-17T14:18:59;12.50;36.10
74101;DHT22;62462;52.530;21.682;2023-03-17T14:21:34;12.60;37.00
74101;DHT22;62462;52.530;21.682;2023-03-17T14:24:13;12.60;36.10
74101;DHT22;62462;52.530;21.682;2023-03-17T14:26:41;12.40;36.40
74101;DHT22;62462;52.530;21.682;2023-03-17T14:29:13;12.30;36.70
74101;DHT22;62462;52.530;21.682;2023-03-17T14:31:39;12.20;36.40
74101;DHT22;62462;52.530;21.682;2023-03-17T14:34:11;12.10;37.10
74101;DHT22;62462;52.530;21.682;2023-03-17T14:36:39;12.00;37.70
74101;DHT22;62462;52.530;21.682;2023-03-17T14:39:06;12.00;37.80
74101;DHT22;62462;52.530;21.682;2023-03-17T14:41:33;12.00;38.20
74101;DHT22;62462;52.530;21.682;2023-03-17T14:44:00;12.00;38.50
74101;DHT22;62462;52.530;21.682;2023-03-17T14:46:36;11.90;37.60
74101;DHT22;62462;52.530;21.682;2023-03-17T14:49:14;11.90;38.00
74101;DHT22;62462;52.530;21.682;2023-03-17T14:51:40;11.90;38.20
74101;DHT22;62462;52.530;21.682;2023-03-17T14:54:32;12.00;37.90
74101;DHT22;62462;52.530;21.682;2023-03-17T14:57:05;12.10;37.70
74101;DHT22;62462;52.530;21.682;2023-03-17T14:59:39;12.20;37.70
74101;DHT22;62462;52.530;21.682;2023-03-17T15:02:35;12.30;37.70
74101;DHT22;62462;52.530;21.682;2023-03-17T15:05:27;12.30;38.90
74101;DHT22;62462;52.530;21.682;2023-03-17T15:07:55;12.20;38.20
74101;DHT22;62462;52.530;21.682;2023-03-17T15:10:24;12.00;38.60
74101;DHT22;62462;52.530;21.682;2023-03-17T15:12:59;11.90;39.00
74101;DHT22;62462;52.530;21.682;2023-03-17T15:15:29;11.80;39.80
74101;DHT22;62462;52.530;21.682;2023-03-17T15:18:02;11.60;39.80
74101;DHT22;62462;52.530;21.682;2023-03-17T15:20:29;11.50;39.70
74101;DHT22;62462;52.530;21.682;2023-03-17T15:23:01;11.50;40.30
74101;DHT22;62462;52.530;21.682;2023-03-17T15:27:56;11.40;40.40
74101;DHT22;62462;52.530;21.682;2023-03-17T15:30:23;11.30;40.50
74101;DHT22;62462;52.530;21.682;2023-03-17T15:32:58;11.20;40.50
74101;DHT22;62462;52.530;21.682;2023-03-17T15:35:25;11.20;40.80
74101;DHT22;62462;52.530;21.682;2023-03-17T15:37:52;11.20;40.90
74101;DHT22;62462;52.530;21.682;2023-03-17T15:40:19;11.30;40.90
74101;DHT22;62462;52.530;21.682;2023-03-17T15:42:45;11.40;40.90
74101;DHT22;62462;52.530;21.682;2023-03-17T15:45:17;11.80;40.00
74101;DHT22;62462;52.530;21.682;2023-03-17T15:47:44;12.20;39.30
74101;DHT22;62462;52.530;21.682;2023-03-17T15:52:40;12.30;38.20
74101;DHT22;62462;52.530;21.682;2023-03-17T15:55:15;12.10;38.70
74101;DHT22;62462;52.530;21.682;2023-03-17T15:57:42;11.80;39.20
74101;DHT22;62462;52.530;21.682;2023-03-17T16:00:14;11.60;39.70
74101;DHT22;62462;52.530;21.682;2023-03-17T16:02:41;11.50;40.20
74101;DHT22;62462;52.530;21.682;2023-03-17T16:05:22;11.40;40.50
74101;DHT22;62462;52.530;21.682;2023-03-17T16:07:49;11.30;40.60
74101;DHT22;62462;52.530;21.682;2023-03-17T16:10:19;11.30;41.00
74101;DHT22;62462;52.530;21.682;2023-03-17T16:12:47;11.30;41.20
74101;DHT22;62462;52.530;21.682;2023-03-17T16:15:21;11.10;41.20
74101;DHT22;62462;52.530;21.682;2023-03-17T16:17:51;11.00;41.50
74101;DHT22;62462;52.530;21.682;2023-03-17T16:20:27;10.90;41.80
74101;DHT22;62462;52.530;21.682;2023-03-17T16:22:55;10.80;42.20
74101;DHT22;62462;52.530;21.682;2023-03-17T16:25:26;10.70;42.30
74101;DHT22;62462;52.530;21.682;2023-03-17T16:27:57;10.60;42.50
74101;DHT22;62462;52.530;21.682;2023-03-17T16:30:26;10.50;42.50
74101;DHT22;62462;52.530;21.682;2023-03-17T16:32:53;10.40;42.90
74101;DHT22;62462;52.530;21.682;2023-03-17T16:35:21;10.30;43.30
74101;DHT22;62462;52.530;21.682;2023-03-17T16:37:48;10.30;43.30
74101;DHT22;62462;52.530;21.682;2023-03-17T16:40:18;10.30;43.50
74101;DHT22;62462;52.530;21.682;2023-03-17T16:42:44;10.30;43.60
74101;DHT22;62462;52.530;21.682;2023-03-17T16:45:15;10.30;43.70
74101;DHT22;62462;52.530;21.682;2023-03-17T16:47:42;10.30;43.70
74101;DHT22;62462;52.530;21.682;2023-03-17T16:50:19;10.30;43.40
74101;DHT22;62462;52.530;21.682;2023-03-17T16:52:46;10.30;43.60
74101;DHT22;62462;52.530;21.682;2023-03-17T16:55:15;10.30;43.80
74101;DHT22;62462;52.530;21.682;2023-03-17T16:57:45;10.20;43.80
74101;DHT22;62462;52.530;21.682;2023-03-17T17:00:22;10.20;44.00
74101;DHT22;62462;52.530;21.682;2023-03-17T17:02:49;10.20;44.30
74101;DHT22;62462;52.530;21.682;2023-03-17T17:07:47;10.10;44.50
74101;DHT22;62462;52.530;21.682;2023-03-17T17:10:15;10.10;44.80
74101;DHT22;62462;52.530;21.682;2023-03-17T17:12:41;10.00;44.90
74101;DHT22;62462;52.530;21.682;2023-03-17T17:15:08;10.00;45.20
74101;DHT22;62462;52.530;21.682;2023-03-17T17:17:37;9.90;45.30
74101;DHT22;62462;52.530;21.682;2023-03-17T17:20:25;9.90;45.70
74101;DHT22;62462;52.530;21.682;2023-03-17T17:22:54;9.70;45.90
74101;DHT22;62462;52.530;21.682;2023-03-17T17:25:20;9.60;46.10
74101;DHT22;62462;52.530;21.682;2023-03-17T17:27:47;9.60;46.30
74101;DHT22;62462;52.530;21.682;2023-03-17T17:30:16;9.60;46.50
74101;DHT22;62462;52.530;21.682;2023-03-17T17:32:43;9.60;46.60
74101;DHT22;62462;52.530;21.682;2023-03-17T17:35:10;9.50;46.70
74101;DHT22;62462;52.530;21.682;2023-03-17T17:37:37;9.50;46.80
74101;DHT22;62462;52.530;21.682;2023-03-17T17:40:04;9.40;47.00
74101;DHT22;62462;52.530;21.682;2023-03-17T17:42:30;9.40;47.20
74101;DHT22;62462;52.530;21.682;2023-03-17T17:44:56;9.40;47.20